Clark Mills, New York
Current Conditions -  °F | °C
As of 5:09 PM on Thursday 27 Nov 2014 (Local Time) from KRME Reporting Station
Light Snow Light Snow  
Wind Chill: 22°   Ceiling: 800
Heat Index: 29°   Visibility: 2mi
Dew Point: 27°   Wind: 7mph
Humidity: 92%   Direction: 280°W
Pressure: 30.05"   Gusts: NA
Location:  43.08°N, 75.38°W
Report Text: KRME 272209Z 28006KT 2SM -SN BR BKN008 BKN020 OVC025 M02/M03 A3005 RMK AO2 CIG 006V012 P0001 T10171028
Loading
Personal Weather Stations






























Interactive Weather Map New forecast layout! Learn more

10-Day Weather Forecast

Advertisements
Track Severe Weather on mobile